Time;durP1;ratioP1;P1;durP2;ratioP2;P2;SDS_P1;SDS_P2;PMS_P1;PMS_P2;Temp;Humidity;BMP_temperature;BMP_pressure;BME280_temperature;BME280_humidity;BME280_pressure;Samples;Min_cycle;Max_cycle;Signal;HPM_P1;HPM_P2
2022/07/21 00:01:45;;;;;;;;;;;25.20;99.90;;;;;;5094206;28;20381;-70
2022/07/21 00:04:11;;;;;;;;;;;25.20;99.90;;;;;;5094112;28;19929;-70
2022/07/21 00:06:37;;;;;;;;;;;25.20;99.90;;;;;;5094468;28;19904;-71
2022/07/21 00:09:03;;;;;;;;;;;25.20;99.90;;;;;;5094151;28;20056;-70
2022/07/21 00:11:29;;;;;;;;;;;25.20;99.90;;;;;;5094355;28;20220;-70
2022/07/21 00:13:55;;;;;;;;;;;25.20;99.90;;;;;;5093965;28;19911;-70
2022/07/21 00:16:20;;;;;;;;;;;25.10;99.90;;;;;;5094030;28;19904;-71
2022/07/21 00:18:46;;;;;;;;;;;25.20;99.90;;;;;;5094404;28;19912;-70
2022/07/21 00:21:12;;;;;;;;;;;25.20;99.90;;;;;;5094283;28;19904;-70
2022/07/21 00:23:39;;;;;;;;;;;25.10;99.90;;;;;;5093997;28;19904;-70
2022/07/21 00:26:05;;;;;;;;;;;25.10;99.90;;;;;;5093896;28;20380;-69
2022/07/21 00:28:30;;;;;;;;;;;25.10;99.90;;;;;;5093798;28;19904;-70
2022/07/21 00:30:56;;;;;;;;;;;25.00;99.90;;;;;;5093809;28;19916;-70
2022/07/21 00:33:22;;;;;;;;;;;25.00;99.90;;;;;;5093847;28;20328;-70
2022/07/21 00:35:48;;;;;;;;;;;24.90;99.90;;;;;;5093618;28;19912;-69
2022/07/21 00:38:14;;;;;;;;;;;25.00;99.90;;;;;;5093668;28;20248;-69
2022/07/21 00:40:40;;;;;;;;;;;25.00;99.90;;;;;;5093839;28;19923;-70
2022/07/21 00:43:06;;;;;;;;;;;25.00;99.90;;;;;;5092048;28;19958;-70
2022/07/21 00:45:31;;;;;;;;;;;25.00;99.90;;;;;;5093659;28;20019;-69
2022/07/21 00:47:57;;;;;;;;;;;25.00;99.90;;;;;;5093534;28;19919;-70
2022/07/21 00:50:23;;;;;;;;;;;25.00;99.90;;;;;;5093701;28;19904;-70
2022/07/21 00:52:50;;;;;;;;;;;25.10;99.90;;;;;;5093339;28;19911;-70
2022/07/21 00:55:17;;;;;;;;;;;25.10;99.90;;;;;;5093088;28;20001;-70
2022/07/21 00:57:43;;;;;;;;;;;25.10;99.90;;;;;;5093467;28;19915;-71
2022/07/21 01:00:11;;;;;;;;;;;25.20;99.90;;;;;;5093135;28;20391;-70
2022/07/21 01:02:37;;;;;;;;;;;25.20;99.90;;;;;;5093116;28;20444;-71
2022/07/21 01:05:04;;;;;;;;;;;25.30;99.90;;;;;;5092313;28;19908;-72
2022/07/21 01:07:30;;;;;;;;;;;25.20;99.90;;;;;;5093270;28;20326;-72
2022/07/21 01:09:56;;;;;;;;;;;25.20;99.90;;;;;;5092665;28;19954;-71
2022/07/21 01:12:22;;;;;;;;;;;25.20;99.90;;;;;;5092961;28;19943;-71
2022/07/21 01:14:48;;;;;;;;;;;25.20;99.90;;;;;;5093047;28;19966;-71
2022/07/21 01:17:14;;;;;;;;;;;25.20;99.90;;;;;;5092668;28;20353;-71
2022/07/21 01:19:40;;;;;;;;;;;25.10;99.90;;;;;;5093074;28;19926;-71
2022/07/21 01:22:06;;;;;;;;;;;25.20;99.90;;;;;;5092884;28;20015;-71
2022/07/21 01:24:32;;;;;;;;;;;25.10;99.90;;;;;;5092471;28;19904;-71
2022/07/21 01:26:58;;;;;;;;;;;25.10;99.90;;;;;;5092704;28;19995;-71
2022/07/21 01:29:24;;;;;;;;;;;25.10;99.90;;;;;;5092619;28;19908;-71
2022/07/21 01:31:50;;;;;;;;;;;25.10;99.90;;;;;;5090939;28;19915;-71
2022/07/21 01:34:17;;;;;;;;;;;25.10;99.90;;;;;;5093015;28;20300;-71
2022/07/21 01:36:44;;;;;;;;;;;25.10;99.90;;;;;;5092441;28;19904;-71
2022/07/21 01:41:54;;;;;;;;;;;25.20;99.90;;;;;;5093003;28;20260;-71
2022/07/21 01:44:20;;;;;;;;;;;25.20;99.90;;;;;;5092328;28;19952;-71
2022/07/21 01:46:47;;;;;;;;;;;25.20;99.90;;;;;;5092226;28;19951;-70
2022/07/21 01:49:14;;;;;;;;;;;25.20;99.90;;;;;;5092112;28;19994;-69
2022/07/21 01:51:40;;;;;;;;;;;25.20;99.90;;;;;;5091865;28;20084;-70
2022/07/21 01:54:07;;;;;;;;;;;25.20;99.90;;;;;;5092093;28;20376;-70
2022/07/21 01:56:33;;;;;;;;;;;25.20;99.90;;;;;;5091901;28;20040;-70
2022/07/21 01:58:59;;;;;;;;;;;25.20;99.90;;;;;;5090495;28;19996;-71
2022/07/21 02:01:26;;;;;;;;;;;25.20;99.90;;;;;;5090516;28;19986;-71
2022/07/21 02:03:52;;;;;;;;;;;25.20;99.90;;;;;;5091813;28;19991;-71
2022/07/21 02:06:18;;;;;;;;;;;25.30;99.90;;;;;;5092302;28;19904;-71
2022/07/21 02:08:44;;;;;;;;;;;25.30;99.90;;;;;;5092080;28;19935;-71
2022/07/21 02:11:10;;;;;;;;;;;25.40;99.90;;;;;;5092149;28;19908;-71
2022/07/21 02:13:36;;;;;;;;;;;25.40;99.90;;;;;;5091662;28;19904;-71
2022/07/21 02:16:02;;;;;;;;;;;25.40;99.90;;;;;;5090053;28;19935;-70
2022/07/21 02:18:28;;;;;;;;;;;25.30;99.90;;;;;;5091486;28;19916;-70
2022/07/21 02:20:54;;;;;;;;;;;25.30;99.90;;;;;;5091773;28;19904;-70
2022/07/21 02:23:20;;;;;;;;;;;25.40;99.90;;;;;;5091666;28;19933;-70
2022/07/21 02:25:46;;;;;;;;;;;25.40;99.90;;;;;;5091963;28;19998;-71
2022/07/21 02:28:12;;;;;;;;;;;25.20;99.90;;;;;;5091385;28;19966;-71
2022/07/21 02:30:38;;;;;;;;;;;25.20;99.90;;;;;;5091296;28;19910;-71
2022/07/21 02:33:04;;;;;;;;;;;25.20;99.90;;;;;;5091403;28;19904;-71
2022/07/21 02:35:30;;;;;;;;;;;25.20;99.90;;;;;;5091267;28;20383;-71
2022/07/21 02:37:56;;;;;;;;;;;25.20;99.90;;;;;;5091524;28;19971;-71
2022/07/21 02:40:22;;;;;;;;;;;25.10;99.90;;;;;;5091465;28;20340;-70
2022/07/21 02:42:47;;;;;;;;;;;25.10;99.90;;;;;;5091530;28;20388;-71
2022/07/21 02:45:13;;;;;;;;;;;25.00;99.90;;;;;;5090003;28;19904;-70
2022/07/21 02:47:49;;;;;;;;;;;24.90;99.90;;;;;;5091226;28;20360;-71
2022/07/21 02:50:15;;;;;;;;;;;24.90;99.90;;;;;;5090994;28;19904;-71
2022/07/21 02:52:41;;;;;;;;;;;24.90;99.90;;;;;;5091900;28;20324;-71
2022/07/21 02:55:07;;;;;;;;;;;24.90;99.90;;;;;;5091524;28;19959;-71
2022/07/21 02:57:33;;;;;;;;;;;24.90;99.90;;;;;;5091670;28;19911;-70
2022/07/21 02:59:59;;;;;;;;;;;24.80;99.90;;;;;;5091555;28;19990;-71
2022/07/21 03:02:25;;;;;;;;;;;24.80;99.90;;;;;;5091931;28;19937;-71
2022/07/21 03:04:50;;;;;;;;;;;24.70;99.90;;;;;;5091684;28;20241;-71
2022/07/21 03:07:16;;;;;;;;;;;24.70;99.90;;;;;;5092023;28;19910;-70
2022/07/21 03:09:42;;;;;;;;;;;24.80;99.90;;;;;;5091428;28;20378;-70
2022/07/21 03:12:08;;;;;;;;;;;24.70;99.90;;;;;;5091881;28;19930;-70
2022/07/21 03:14:34;;;;;;;;;;;24.70;99.90;;;;;;5091332;28;19908;-70
2022/07/21 03:17:02;;;;;;;;;;;24.70;99.90;;;;;;5091112;28;19922;-70
2022/07/21 03:19:28;;;;;;;;;;;24.80;99.90;;;;;;5091546;28;19903;-70
2022/07/21 03:21:53;;;;;;;;;;;24.80;99.90;;;;;;5092155;28;20023;-70
2022/07/21 03:24:21;;;;;;;;;;;24.70;99.90;;;;;;5091903;28;20307;-70
2022/07/21 03:26:46;;;;;;;;;;;24.70;99.90;;;;;;5091924;28;19904;-70
2022/07/21 03:29:12;;;;;;;;;;;24.60;99.90;;;;;;5095231;28;19995;-70
2022/07/21 03:31:38;;;;;;;;;;;24.60;99.90;;;;;;5094263;28;19910;-70
2022/07/21 03:34:04;;;;;;;;;;;24.60;99.90;;;;;;5095855;28;20015;-70
2022/07/21 03:36:30;;;;;;;;;;;24.60;99.90;;;;;;5095780;28;19911;-70
2022/07/21 03:38:55;;;;;;;;;;;24.60;99.90;;;;;;5094697;28;19904;-70
2022/07/21 03:41:21;;;;;;;;;;;24.60;99.90;;;;;;5095090;28;19923;-69
2022/07/21 03:43:47;;;;;;;;;;;24.60;99.90;;;;;;5095228;28;19904;-70
2022/07/21 03:46:13;;;;;;;;;;;24.60;99.90;;;;;;5095028;28;20401;-70
2022/07/21 03:48:39;;;;;;;;;;;24.60;99.90;;;;;;5094866;28;19911;-71
2022/07/21 03:51:05;;;;;;;;;;;24.60;99.90;;;;;;5095014;28;19953;-70
2022/07/21 03:53:31;;;;;;;;;;;24.60;99.90;;;;;;5095208;28;19908;-69
2022/07/21 03:55:56;;;;;;;;;;;24.60;99.90;;;;;;5094763;28;19981;-70
2022/07/21 03:58:22;;;;;;;;;;;24.60;99.90;;;;;;5095316;28;20425;-70
2022/07/21 04:00:48;;;;;;;;;;;24.60;99.90;;;;;;5094971;28;19908;-69
2022/07/21 04:03:14;;;;;;;;;;;24.70;99.90;;;;;;5094921;28;19904;-70
2022/07/21 04:05:41;;;;;;;;;;;24.60;99.90;;;;;;5094684;28;19908;-70
2022/07/21 04:08:08;;;;;;;;;;;24.70;99.90;;;;;;5094913;28;19904;-70
2022/07/21 04:10:35;;;;;;;;;;;24.60;99.90;;;;;;5094410;28;19904;-69
2022/07/21 04:13:02;;;;;;;;;;;24.60;99.90;;;;;;5094867;28;19907;-70
2022/07/21 04:15:28;;;;;;;;;;;24.60;99.90;;;;;;5094450;28;20406;-70
2022/07/21 04:17:54;;;;;;;;;;;24.60;99.90;;;;;;5094699;28;19915;-70
2022/07/21 04:20:20;;;;;;;;;;;24.60;99.90;;;;;;5095359;28;19908;-70
2022/07/21 04:22:49;;;;;;;;;;;24.70;99.90;;;;;;5093613;28;19911;-69
2022/07/21 04:25:15;;;;;;;;;;;24.70;99.90;;;;;;5095437;28;20252;-70
2022/07/21 04:27:41;;;;;;;;;;;24.70;99.90;;;;;;5095072;28;20355;-69
2022/07/21 04:30:08;;;;;;;;;;;24.80;99.90;;;;;;5094966;28;19911;-70
2022/07/21 04:32:34;;;;;;;;;;;24.80;99.90;;;;;;5094901;28;19911;-70
2022/07/21 04:35:00;;;;;;;;;;;24.80;99.90;;;;;;5095214;28;19912;-70
2022/07/21 04:37:26;;;;;;;;;;;24.80;99.90;;;;;;5095019;28;19908;-70
2022/07/21 04:39:52;;;;;;;;;;;24.80;99.90;;;;;;5094211;28;19911;-70
2022/07/21 04:42:18;;;;;;;;;;;24.80;99.90;;;;;;5095609;28;19999;-71
2022/07/21 04:44:44;;;;;;;;;;;24.90;99.90;;;;;;5095253;28;19904;-70
2022/07/21 04:47:09;;;;;;;;;;;24.90;99.90;;;;;;5095740;28;20364;-70
2022/07/21 04:49:35;;;;;;;;;;;25.00;99.90;;;;;;5093817;28;19930;-70
2022/07/21 04:52:01;;;;;;;;;;;25.00;99.90;;;;;;5095595;28;20237;-70
2022/07/21 04:54:27;;;;;;;;;;;25.00;99.90;;;;;;5095307;28;20267;-70
2022/07/21 04:56:55;;;;;;;;;;;25.10;99.90;;;;;;5095035;28;19904;-70
2022/07/21 04:59:21;;;;;;;;;;;25.10;99.90;;;;;;5095467;28;19908;-70
2022/07/21 05:01:47;;;;;;;;;;;25.10;99.90;;;;;;5094950;28;19958;-70
2022/07/21 05:04:12;;;;;;;;;;;25.20;99.90;;;;;;5095366;28;19907;-70
2022/07/21 05:06:38;;;;;;;;;;;25.20;99.90;;;;;;5095079;28;19904;-70
2022/07/21 05:09:04;;;;;;;;;;;25.30;99.90;;;;;;5095150;28;19904;-70
2022/07/21 05:11:30;;;;;;;;;;;25.40;99.90;;;;;;5094335;28;19915;-70
2022/07/21 05:13:57;;;;;;;;;;;25.80;99.90;;;;;;5094224;28;19950;-70
2022/07/21 05:16:23;;;;;;;;;;;27.10;99.90;;;;;;5094244;28;19943;-70
2022/07/21 05:18:48;;;;;;;;;;;28.70;99.90;;;;;;5092828;28;19993;-70
2022/07/21 05:21:14;;;;;;;;;;;30.10;99.90;;;;;;5093958;28;19904;-71
2022/07/21 05:23:40;;;;;;;;;;;31.00;99.90;;;;;;5094496;28;19908;-70
2022/07/21 05:26:06;;;;;;;;;;;32.00;99.90;;;;;;5094104;28;20249;-70
2022/07/21 05:28:32;;;;;;;;;;;33.20;99.90;;;;;;5094393;28;19904;-71
2022/07/21 05:30:57;;;;;;;;;;;34.50;97.60;;;;;;5092384;28;19926;-71
2022/07/21 05:33:23;;;;;;;;;;;34.80;95.80;;;;;;5092463;28;19965;-71
2022/07/21 05:35:49;;;;;;;;;;;35.20;95.10;;;;;;5093883;28;19955;-71
2022/07/21 05:38:15;;;;;;;;;;;35.40;93.80;;;;;;5093803;28;20381;-71
2022/07/21 05:40:41;;;;;;;;;;;35.30;93.30;;;;;;5093913;28;19908;-70
2022/07/21 05:43:06;;;;;;;;;;;34.80;93.80;;;;;;5093401;28;20268;-71
2022/07/21 05:45:32;;;;;;;;;;;34.50;93.80;;;;;;5093912;28;19904;-71
2022/07/21 05:47:58;;;;;;;;;;;34.30;94.10;;;;;;5093409;28;19911;-71
2022/07/21 05:50:24;;;;;;;;;;;34.90;93.50;;;;;;5092459;28;19911;-71
2022/07/21 05:52:50;;;;;;;;;;;36.00;92.00;;;;;;5092806;28;19904;-71
2022/07/21 05:55:15;;;;;;;;;;;37.00;90.90;;;;;;5093169;28;19912;-71
2022/07/21 05:57:41;;;;;;;;;;;37.10;87.40;;;;;;5093248;28;19911;-71
2022/07/21 06:00:07;;;;;;;;;;;36.90;87.60;;;;;;5093012;28;20002;-71
2022/07/21 06:02:33;;;;;;;;;;;37.10;88.20;;;;;;5093208;28;19939;-71
2022/07/21 06:04:59;;;;;;;;;;;37.00;85.80;;;;;;5091459;28;19927;-71
2022/07/21 06:07:25;;;;;;;;;;;36.90;86.00;;;;;;5093231;28;20010;-71
2022/07/21 06:09:51;;;;;;;;;;;37.40;84.00;;;;;;5091579;28;19981;-71
2022/07/21 06:12:17;;;;;;;;;;;38.50;82.80;;;;;;5091417;28;20328;-72
2022/07/21 06:14:43;;;;;;;;;;;39.70;78.20;;;;;;5093200;28;19908;-72
2022/07/21 06:17:09;;;;;;;;;;;39.90;76.40;;;;;;5092723;28;19926;-71
2022/07/21 06:19:35;;;;;;;;;;;40.20;74.70;;;;;;5093864;28;20336;-72
2022/07/21 06:22:02;;;;;;;;;;;41.20;72.40;;;;;;5093200;28;19958;-72
2022/07/21 06:24:28;;;;;;;;;;;41.90;68.60;;;;;;5093320;28;19904;-69
2022/07/21 06:26:57;;;;;;;;;;;42.40;66.10;;;;;;5093452;28;19904;-71
2022/07/21 06:29:23;;;;;;;;;;;43.20;64.70;;;;;;5093045;28;19904;-70
2022/07/21 06:31:50;;;;;;;;;;;43.80;61.00;;;;;;5092846;28;19927;-70
2022/07/21 06:34:15;;;;;;;;;;;42.40;62.10;;;;;;5092813;28;19988;-70
2022/07/21 06:36:41;;;;;;;;;;;41.90;63.10;;;;;;5093000;28;19970;-70
2022/07/21 06:39:07;;;;;;;;;;;42.40;60.70;;;;;;5092950;28;19912;-71
2022/07/21 06:41:33;;;;;;;;;;;42.60;61.40;;;;;;5092784;28;20433;-71
2022/07/21 06:43:58;;;;;;;;;;;43.40;60.80;;;;;;5093265;28;19911;-71
2022/07/21 06:46:24;;;;;;;;;;;43.60;58.50;;;;;;5092897;28;19908;-71
2022/07/21 06:48:50;;;;;;;;;;;44.60;58.00;;;;;;5092899;28;19908;-71
2022/07/21 06:51:17;;;;;;;;;;;45.30;56.60;;;;;;5092882;28;19929;-71
2022/07/21 06:53:42;;;;;;;;;;;46.20;55.60;;;;;;5092949;28;19904;-71
2022/07/21 06:56:08;;;;;;;;;;;47.40;54.50;;;;;;5093241;28;19935;-71
2022/07/21 06:58:35;;;;;;;;;;;48.30;52.90;;;;;;5092787;28;19965;-71
2022/07/21 07:01:00;;;;;;;;;;;48.20;50.70;;;;;;5091347;28;19914;-71
2022/07/21 07:03:26;;;;;;;;;;;48.80;50.60;;;;;;5094372;28;19994;-71
2022/07/21 07:05:52;;;;;;;;;;;48.80;52.20;;;;;;5097125;28;19928;-71
2022/07/21 07:08:18;;;;;;;;;;;48.50;51.50;;;;;;5095308;28;20314;-71
2022/07/21 07:10:46;;;;;;;;;;;48.50;51.60;;;;;;5096120;28;20048;-71
2022/07/21 07:13:13;;;;;;;;;;;48.30;51.10;;;;;;5096651;28;19904;-71
2022/07/21 07:15:39;;;;;;;;;;;47.90;50.60;;;;;;5096830;28;19919;-71
2022/07/21 07:18:05;;;;;;;;;;;47.50;50.50;;;;;;5096270;28;19915;-72
2022/07/21 07:20:31;;;;;;;;;;;47.20;51.00;;;;;;5096774;28;19930;-71
2022/07/21 07:22:57;;;;;;;;;;;46.40;50.90;;;;;;5097079;28;19904;-71
2022/07/21 07:25:22;;;;;;;;;;;46.10;51.80;;;;;;5095953;28;20320;-71
2022/07/21 07:27:49;;;;;;;;;;;44.90;51.80;;;;;;5095549;28;19914;-70
2022/07/21 07:30:16;;;;;;;;;;;42.90;54.10;;;;;;5094547;28;19904;-71
2022/07/21 07:32:42;;;;;;;;;;;41.40;55.80;;;;;;5096232;28;20368;-70
2022/07/21 07:35:09;;;;;;;;;;;41.00;57.60;;;;;;5096074;28;19916;-71
2022/07/21 07:37:35;;;;;;;;;;;40.80;58.50;;;;;;5095727;28;19904;-71
2022/07/21 07:40:02;;;;;;;;;;;39.80;59.80;;;;;;5095977;28;19919;-71
2022/07/21 07:42:28;;;;;;;;;;;39.40;62.60;;;;;;5095997;28;20014;-71
2022/07/21 07:44:54;;;;;;;;;;;39.30;65.20;;;;;;5096241;28;19904;-70
2022/07/21 07:47:20;;;;;;;;;;;39.30;67.70;;;;;;5094456;28;20022;-71
2022/07/21 07:49:49;;;;;;;;;;;39.40;69.70;;;;;;5096197;28;19911;-72
2022/07/21 07:52:15;;;;;;;;;;;39.40;71.90;;;;;;5095224;28;19927;-71
2022/07/21 07:54:40;;;;;;;;;;;38.90;73.00;;;;;;5095794;28;19916;-72
2022/07/21 07:57:06;;;;;;;;;;;38.10;74.10;;;;;;5095605;28;19956;-72
2022/07/21 07:59:32;;;;;;;;;;;38.00;75.10;;;;;;5095647;28;19904;-71
2022/07/21 08:01:58;;;;;;;;;;;38.00;76.20;;;;;;5095566;28;20033;-72
2022/07/21 08:04:23;;;;;;;;;;;37.70;77.10;;;;;;5095288;28;19904;-71
2022/07/21 08:06:49;;;;;;;;;;;37.80;78.30;;;;;;5095047;28;19911;-71
2022/07/21 08:09:15;;;;;;;;;;;37.30;78.90;;;;;;5093507;28;19911;-71
2022/07/21 08:11:41;;;;;;;;;;;37.10;79.90;;;;;;5094619;28;19962;-71
2022/07/21 08:14:07;;;;;;;;;;;37.30;80.20;;;;;;5094765;28;19912;-71
2022/07/21 08:16:34;;;;;;;;;;;37.30;80.20;;;;;;5094962;28;19914;-71
2022/07/21 08:18:59;;;;;;;;;;;37.40;80.10;;;;;;5096271;28;19904;-72
2022/07/21 08:21:30;;;;;;;;;;;37.50;79.70;;;;;;5095399;28;20006;-71
2022/07/21 08:23:56;;;;;;;;;;;37.50;80.20;;;;;;5095769;28;19957;-71
2022/07/21 08:26:22;;;;;;;;;;;37.50;79.40;;;;;;5095626;28;19965;-71
2022/07/21 08:28:49;;;;;;;;;;;37.40;79.60;;;;;;5095795;28;19919;-71
2022/07/21 08:31:14;;;;;;;;;;;37.50;79.50;;;;;;5095700;28;19911;-72
2022/07/21 08:33:40;;;;;;;;;;;37.60;78.40;;;;;;5095423;28;19904;-71
2022/07/21 08:36:06;;;;;;;;;;;37.50;79.10;;;;;;5095515;28;20379;-71
2022/07/21 08:38:32;;;;;;;;;;;37.40;79.50;;;;;;5095433;28;19910;-71
2022/07/21 08:40:58;;;;;;;;;;;37.40;79.40;;;;;;5095426;28;19943;-72
2022/07/21 08:43:23;;;;;;;;;;;37.20;79.30;;;;;;5093727;28;19904;-71
2022/07/21 08:45:49;;;;;;;;;;;37.10;79.90;;;;;;5095270;28;19911;-71
2022/07/21 08:48:19;;;;;;;;;;;36.80;81.20;;;;;;5094649;28;20338;-71
2022/07/21 08:50:45;;;;;;;;;;;36.70;80.40;;;;;;5092773;28;20236;-71
2022/07/21 08:53:11;;;;;;;;;;;36.80;80.20;;;;;;5094307;28;19904;-71
2022/07/21 08:55:39;;;;;;;;;;;37.00;79.00;;;;;;5094536;28;19957;-71
2022/07/21 08:58:07;;;;;;;;;;;37.10;76.00;;;;;;5094698;28;19912;-71
2022/07/21 09:00:34;;;;;;;;;;;37.00;75.60;;;;;;5094584;28;20018;-71
2022/07/21 09:03:10;;;;;;;;;;;37.10;75.30;;;;;;5094604;28;19904;-71
2022/07/21 09:05:36;;;;;;;;;;;36.70;77.20;;;;;;5094397;28;20387;-71
2022/07/21 09:08:02;;;;;;;;;;;36.60;78.10;;;;;;5094299;28;19908;-71
2022/07/21 09:10:29;;;;;;;;;;;36.40;77.50;;;;;;5094193;28;20360;-71
2022/07/21 09:12:56;;;;;;;;;;;36.20;77.50;;;;;;5094678;28;19927;-71
2022/07/21 09:15:23;;;;;;;;;;;36.10;77.40;;;;;;5094027;28;19924;-71
2022/07/21 09:18:03;;;;;;;;;;;36.20;76.90;;;;;;5092609;28;19920;-71
2022/07/21 09:20:29;;;;;;;;;;;36.30;75.80;;;;;;5094612;28;19911;-71
2022/07/21 09:23:21;;;;;;;;;;;36.30;76.50;;;;;;5094648;28;19904;-71
2022/07/21 09:25:48;;;;;;;;;;;36.40;75.90;;;;;;5089577;28;19912;-71
2022/07/21 09:28:25;;;;;;;;;;;36.40;76.00;;;;;;5094312;28;19998;-71
2022/07/21 09:30:52;;;;;;;;;;;36.50;75.90;;;;;;5093863;28;19904;-71
2022/07/21 09:33:26;;;;;;;;;;;36.20;74.30;;;;;;5093859;28;20356;-71
2022/07/21 09:35:56;;;;;;;;;;;36.30;74.90;;;;;;5093704;28;19934;-71
2022/07/21 09:38:22;;;;;;;;;;;36.10;74.00;;;;;;5093766;28;19939;-71
2022/07/21 09:40:48;;;;;;;;;;;36.10;74.30;;;;;;5092102;28;20016;-72
2022/07/21 09:43:34;;;;;;;;;;;35.80;75.00;;;;;;5094034;28;19966;-71
2022/07/21 09:46:02;;;;;;;;;;;35.90;75.90;;;;;;5093564;28;20332;-71
2022/07/21 09:48:29;;;;;;;;;;;35.90;76.00;;;;;;5093535;28;19999;-71
2022/07/21 09:50:55;;;;;;;;;;;35.80;75.60;;;;;;5093431;28;19971;-71
2022/07/21 09:53:20;;;;;;;;;;;35.60;76.80;;;;;;5093325;28;20038;-71
2022/07/21 09:55:46;;;;;;;;;;;35.50;78.50;;;;;;5093696;28;20351;-71
2022/07/21 09:58:12;;;;;;;;;;;35.50;77.70;;;;;;5091386;28;19911;-71
2022/07/21 10:00:38;;;;;;;;;;;35.30;78.30;;;;;;5093327;28;20363;-71
2022/07/21 10:03:04;;;;;;;;;;;35.30;78.30;;;;;;5093290;28;19904;-72
2022/07/21 10:05:30;;;;;;;;;;;35.20;78.50;;;;;;5093359;28;19911;-71
2022/07/21 10:07:56;;;;;;;;;;;35.10;77.10;;;;;;5093140;28;19904;-72
2022/07/21 10:10:22;;;;;;;;;;;34.80;78.00;;;;;;5092025;28;20377;-70
2022/07/21 10:12:48;;;;;;;;;;;34.30;79.30;;;;;;5093175;28;19904;-71
2022/07/21 10:15:14;;;;;;;;;;;34.30;79.70;;;;;;5093033;28;19922;-71
2022/07/21 10:17:41;;;;;;;;;;;34.40;79.20;;;;;;5092712;28;19998;-71
2022/07/21 10:20:11;;;;;;;;;;;34.20;79.90;;;;;;5093119;28;19908;-71
2022/07/21 10:22:49;;;;;;;;;;;34.10;80.40;;;;;;5092148;28;19904;-71
2022/07/21 10:25:15;;;;;;;;;;;34.30;80.80;;;;;;5093375;28;19904;-72
2022/07/21 10:27:59;;;;;;;;;;;34.50;81.80;;;;;;5093856;28;19904;-71
2022/07/21 10:30:42;;;;;;;;;;;34.20;82.60;;;;;;5093285;28;19904;-71
2022/07/21 10:33:08;;;;;;;;;;;34.20;82.60;;;;;;5093583;28;19948;-71
2022/07/21 10:35:34;;;;;;;;;;;34.20;82.30;;;;;;5092992;28;19946;-71
2022/07/21 10:38:01;;;;;;;;;;;34.20;82.60;;;;;;5092762;28;19903;-71
2022/07/21 10:40:27;;;;;;;;;;;33.90;83.60;;;;;;5093136;28;20348;-71
2022/07/21 10:42:58;;;;;;;;;;;33.80;84.20;;;;;;5093252;28;19904;-71
2022/07/21 10:45:32;;;;;;;;;;;33.80;84.90;;;;;;5093001;28;19930;-71
2022/07/21 10:47:58;;;;;;;;;;;33.80;85.00;;;;;;5093082;28;19908;-71
2022/07/21 10:50:35;;;;;;;;;;;33.90;85.50;;;;;;5093002;28;20351;-71
2022/07/21 10:53:03;;;;;;;;;;;34.10;86.30;;;;;;5092858;28;19904;-72
2022/07/21 10:55:34;;;;;;;;;;;34.00;86.10;;;;;;5091366;28;20329;-71
2022/07/21 10:58:20;;;;;;;;;;;33.90;86.90;;;;;;5093022;28;19962;-71
2022/07/21 11:00:48;;;;;;;;;;;33.80;86.80;;;;;;5078339;28;19911;-71
2022/07/21 11:03:17;;;;;;;;;;;34.10;85.80;;;;;;5092826;28;20006;-71
2022/07/21 11:06:06;;;;;;;;;;;34.00;84.20;;;;;;5093087;28;20367;-71
2022/07/21 11:08:34;;;;;;;;;;;34.10;85.00;;;;;;5082211;28;19908;-71
2022/07/21 11:11:16;;;;;;;;;;;34.10;86.70;;;;;;5093253;28;19904;-71
2022/07/21 11:14:00;;;;;;;;;;;34.10;86.60;;;;;;5092779;28;19908;-71
2022/07/21 11:16:41;;;;;;;;;;;34.10;87.50;;;;;;5093049;28;20407;-71
2022/07/21 11:19:26;;;;;;;;;;;34.00;87.60;;;;;;5092651;28;19915;-71
2022/07/21 11:21:52;;;;;;;;;;;34.10;86.20;;;;;;5093195;28;19961;-71
2022/07/21 11:24:18;;;;;;;;;;;34.00;87.70;;;;;;5091186;28;20260;-71
2022/07/21 11:26:44;;;;;;;;;;;34.00;87.70;;;;;;5092747;28;20301;-71
2022/07/21 11:29:10;;;;;;;;;;;34.00;86.70;;;;;;5092727;28;19957;-71
2022/07/21 11:31:46;;;;;;;;;;;33.80;88.90;;;;;;5092656;28;19904;-71
2022/07/21 11:34:12;;;;;;;;;;;33.90;90.20;;;;;;5092444;28;19951;-71
2022/07/21 11:36:37;;;;;;;;;;;33.70;91.20;;;;;;5092629;28;19919;-71
2022/07/21 11:39:03;;;;;;;;;;;33.80;91.70;;;;;;5092585;28;19904;-71
2022/07/21 11:41:29;;;;;;;;;;;33.90;92.00;;;;;;5092527;28;19911;-71
2022/07/21 11:43:55;;;;;;;;;;;33.80;92.30;;;;;;5092684;28;20229;-71
2022/07/21 11:46:21;;;;;;;;;;;33.70;92.30;;;;;;5092863;28;20272;-71
2022/07/21 11:48:47;;;;;;;;;;;33.60;91.90;;;;;;5093001;28;19904;-71
2022/07/21 11:51:13;;;;;;;;;;;33.40;92.80;;;;;;5096480;28;19949;-71
2022/07/21 11:53:46;;;;;;;;;;;33.40;93.70;;;;;;5096499;28;19910;-71
2022/07/21 11:56:15;;;;;;;;;;;33.50;93.60;;;;;;5096239;28;20010;-71
2022/07/21 11:58:42;;;;;;;;;;;33.60;93.80;;;;;;5096130;28;20360;-71
2022/07/21 12:01:08;;;;;;;;;;;33.70;92.30;;;;;;5095567;28;19926;-71
2022/07/21 12:03:34;;;;;;;;;;;33.70;93.30;;;;;;5095058;28;19984;-71
2022/07/21 12:06:01;;;;;;;;;;;33.80;92.40;;;;;;5093962;28;19910;-71
2022/07/21 12:08:28;;;;;;;;;;;33.80;92.50;;;;;;5095337;28;19990;-71
2022/07/21 12:11:07;;;;;;;;;;;33.90;93.30;;;;;;5095607;28;19915;-71
2022/07/21 12:13:52;;;;;;;;;;;34.00;93.80;;;;;;5095650;28;19904;-71
2022/07/21 12:16:18;;;;;;;;;;;33.90;92.80;;;;;;5095160;28;20029;-71
2022/07/21 12:18:43;;;;;;;;;;;33.80;93.90;;;;;;5096237;28;20423;-71
2022/07/21 12:21:09;;;;;;;;;;;33.70;94.00;;;;;;5095484;28;19949;-71
2022/07/21 12:23:35;;;;;;;;;;;33.70;93.20;;;;;;5095785;28;19908;-71
2022/07/21 12:26:01;;;;;;;;;;;33.70;93.80;;;;;;5095616;28;19904;-71
2022/07/21 12:28:44;;;;;;;;;;;33.60;94.60;;;;;;5095491;28;19992;-71
2022/07/21 12:31:11;;;;;;;;;;;33.50;94.40;;;;;;5095600;28;20261;-71
2022/07/21 12:33:37;;;;;;;;;;;33.70;95.00;;;;;;5095533;28;19957;-72
2022/07/21 12:36:04;;;;;;;;;;;33.70;94.30;;;;;;5095165;28;19912;-71
2022/07/21 12:38:36;;;;;;;;;;;33.80;94.50;;;;;;5095681;28;20332;-71
2022/07/21 12:41:01;;;;;;;;;;;33.60;94.10;;;;;;5094146;28;20295;-71
2022/07/21 12:43:27;;;;;;;;;;;33.70;94.30;;;;;;5095532;28;20356;-71
2022/07/21 12:45:53;;;;;;;;;;;33.70;93.90;;;;;;5093806;28;20069;-71
2022/07/21 12:48:21;;;;;;;;;;;33.70;95.70;;;;;;5095129;28;20371;-71
2022/07/21 12:51:06;;;;;;;;;;;33.70;96.30;;;;;;5093845;28;19927;-71
2022/07/21 12:53:33;;;;;;;;;;;33.80;95.00;;;;;;5094830;28;19904;-71
2022/07/21 12:55:59;;;;;;;;;;;33.90;95.00;;;;;;5094807;28;20007;-71
2022/07/21 12:58:25;;;;;;;;;;;34.00;94.70;;;;;;5094794;28;19944;-71
2022/07/21 13:00:51;;;;;;;;;;;33.80;94.30;;;;;;5093446;28;19904;-71
2022/07/21 13:03:17;;;;;;;;;;;33.60;95.20;;;;;;5094576;28;20307;-71
2022/07/21 13:05:43;;;;;;;;;;;33.40;95.00;;;;;;5094044;28;19904;-71
2022/07/21 13:08:08;;;;;;;;;;;33.40;95.20;;;;;;5094116;28;19903;-71
2022/07/21 13:10:34;;;;;;;;;;;33.30;96.00;;;;;;5094135;28;19910;-71
2022/07/21 13:13:00;;;;;;;;;;;33.50;96.40;;;;;;5093821;28;19904;-71
2022/07/21 13:15:26;;;;;;;;;;;33.70;96.50;;;;;;5094500;28;19956;-71
2022/07/21 13:17:52;;;;;;;;;;;33.60;97.30;;;;;;5094187;28;20322;-71
2022/07/21 13:20:18;;;;;;;;;;;33.60;97.60;;;;;;5095070;28;19961;-71
2022/07/21 13:22:44;;;;;;;;;;;33.70;97.60;;;;;;5094420;28;19904;-71
2022/07/21 13:25:10;;;;;;;;;;;33.70;98.30;;;;;;5094644;28;20268;-71
2022/07/21 13:27:37;;;;;;;;;;;33.70;98.90;;;;;;5094456;28;20273;-71
2022/07/21 13:30:04;;;;;;;;;;;33.80;99.90;;;;;;5094864;28;19911;-71
2022/07/21 13:32:30;;;;;;;;;;;33.70;99.90;;;;;;5094576;28;19904;-71
2022/07/21 13:34:56;;;;;;;;;;;33.80;99.90;;;;;;5094430;28;19961;-71
2022/07/21 13:37:22;;;;;;;;;;;33.80;99.80;;;;;;5094303;28;19915;-71
2022/07/21 13:39:48;;;;;;;;;;;33.60;99.90;;;;;;5094629;28;20299;-71
2022/07/21 13:42:14;;;;;;;;;;;33.70;99.90;;;;;;5094248;28;19930;-71
2022/07/21 13:44:39;;;;;;;;;;;33.60;99.90;;;;;;5094144;28;19939;-71
2022/07/21 13:47:05;;;;;;;;;;;33.80;99.90;;;;;;5094003;28;19904;-71
2022/07/21 13:49:31;;;;;;;;;;;33.60;99.90;;;;;;5093899;28;19930;-71
2022/07/21 13:51:57;;;;;;;;;;;33.60;99.90;;;;;;5093652;28;19947;-71
2022/07/21 13:54:23;;;;;;;;;;;33.40;99.90;;;;;;5093573;28;19930;-71
2022/07/21 13:56:48;;;;;;;;;;;33.30;99.90;;;;;;5093240;28;19915;-71
2022/07/21 13:59:14;;;;;;;;;;;33.40;99.90;;;;;;5093513;28;19995;-71
2022/07/21 14:01:40;;;;;;;;;;;33.60;99.90;;;;;;5093238;28;19904;-72
2022/07/21 14:04:06;;;;;;;;;;;33.50;99.90;;;;;;5093680;28;19908;-71
2022/07/21 14:06:32;;;;;;;;;;;33.70;99.90;;;;;;5093148;28;20007;-71
2022/07/21 14:08:57;;;;;;;;;;;33.70;99.90;;;;;;5093040;28;19904;-71
2022/07/21 14:11:27;;;;;;;;;;;33.60;99.90;;;;;;5093430;28;19904;-71
2022/07/21 14:13:53;;;;;;;;;;;33.50;99.90;;;;;;5093276;28;19996;-71
2022/07/21 14:16:19;;;;;;;;;;;33.50;99.90;;;;;;5092858;28;19931;-71
2022/07/21 14:18:44;;;;;;;;;;;33.50;99.90;;;;;;5091578;28;20028;-71